KFOE/FOE METAR and TAF weather

Enter ICAO airport designator
Station Type Date Time Source
KFOE METAR 2019/10/23 12:53 UTC NOAA

KFOE 231253Z 18005KT 10SM CLR 09/02 A2988 RMK AO2 SLP119 T00940022


Station Type Date Time Source
KFOE Decoded METAR 2019/10/23 12:53 UTC NOAA

FORBES FIELD, KS, United States (KFOE) 38-56N 95-39W 320M
Oct 23, 2019 - 08:53 AM EDT / 2019.10.23 1253 UTC
Wind: from the S (180 degrees) at 6 MPH (5 KT):0
Visibility: 10 mile(s):0
Sky conditions: clear
Temperature: 48.9 F (9.4 C)
Dew Point: 36.0 F (2.2 C)
Relative Humidity: 60%
Pressure (altimeter): 29.88 in. Hg (1011 hPa)
ob: KFOE 231253Z 18005KT 10SM CLR 09/02 A2988 RMK AO2 SLP119 T00940022
cycle: 13

Station Type Date Time Source
KFOE TAF 2019/10/23 12:22 UTC NOAA

TAF KFOE 231120Z 2312/2412 20008KT P6SM SCT120 WS015/23050KT
FM231500 24015G24KT P6SM SCT200
FM232200 30010KT P6SM BKN200
FM240500 36014KT P6SM SCT025 OVC050

Example: see airport list